createdAt,value
2023-05-11T00:01:53.050Z,11.05
2023-05-11T00:04:19.944Z,11.06
2023-05-11T00:06:46.877Z,11.06
2023-05-11T00:09:13.806Z,11.06
2023-05-11T00:11:41.064Z,11.05
2023-05-11T00:14:08.208Z,11.05
2023-05-11T00:16:35.180Z,11.06
2023-05-11T00:19:02.135Z,11.06
2023-05-11T00:21:29.089Z,11.07
2023-05-11T00:23:56.245Z,11.06
2023-05-11T00:26:23.399Z,11.06
2023-05-11T00:28:51.461Z,11.05
2023-05-11T00:31:18.348Z,11.05
2023-05-11T00:33:45.601Z,11.05
2023-05-11T00:36:12.519Z,11.04
2023-05-11T00:38:42.850Z,11.02
2023-05-11T00:41:09.809Z,11.00
2023-05-11T00:43:36.642Z,10.98
2023-05-11T00:46:04.007Z,10.96
2023-05-11T00:48:30.949Z,10.94
2023-05-11T00:50:59.345Z,10.93
2023-05-11T00:53:26.394Z,10.93
2023-05-11T00:55:54.168Z,10.93
2023-05-11T00:58:21.230Z,10.93
2023-05-11T01:00:48.216Z,10.93
2023-05-11T01:03:16.320Z,10.94
2023-05-11T01:05:52.289Z,10.96
2023-05-11T01:08:24.881Z,10.98
2023-05-11T01:11:19.520Z,11.01
2023-05-11T01:13:50.896Z,11.03
2023-05-11T01:16:22.298Z,11.06
2023-05-11T01:19:02.362Z,11.09
2023-05-11T01:21:34.193Z,11.11
2023-05-11T01:24:30.929Z,11.14
2023-05-11T01:27:20.236Z,11.16
2023-05-11T01:29:58.789Z,11.17
2023-05-11T01:32:26.926Z,11.18
2023-05-11T01:35:08.970Z,11.19
2023-05-11T01:37:35.921Z,11.19
2023-05-11T01:40:10.679Z,11.18
2023-05-11T01:42:42.011Z,11.18
2023-05-11T01:45:09.564Z,11.17
2023-05-11T01:47:36.505Z,11.17
2023-05-11T01:50:04.316Z,11.16
2023-05-11T01:52:32.169Z,11.16
2023-05-11T01:54:59.097Z,11.16
2023-05-11T01:57:26.156Z,11.14
2023-05-11T01:59:53.100Z,11.11
2023-05-11T02:02:20.418Z,11.09
2023-05-11T02:04:47.638Z,11.06
2023-05-11T02:07:14.566Z,11.03
2023-05-11T02:09:41.524Z,11.00
2023-05-11T02:12:09.007Z,10.97
2023-05-11T02:14:36.781Z,10.95
2023-05-11T02:17:04.319Z,10.92
2023-05-11T02:19:33.061Z,10.90
2023-05-11T02:22:00.295Z,10.87
2023-05-11T02:24:27.538Z,10.85
2023-05-11T02:26:54.389Z,10.82
2023-05-11T02:29:21.633Z,10.81
2023-05-11T02:31:49.652Z,10.78
2023-05-11T02:34:44.498Z,10.77
2023-05-11T02:37:15.751Z,10.76
2023-05-11T02:39:44.948Z,10.73
2023-05-11T02:42:18.106Z,10.72
2023-05-11T02:44:51.451Z,10.69
2023-05-11T02:47:18.395Z,10.68
2023-05-11T02:49:45.571Z,10.67
2023-05-11T02:52:12.808Z,10.68
2023-05-11T02:54:43.072Z,10.70
2023-05-11T02:57:10.080Z,10.72
2023-05-11T02:59:37.343Z,10.76
2023-05-11T03:02:04.531Z,10.80
2023-05-11T03:04:31.755Z,10.83
2023-05-11T03:06:58.708Z,10.87
2023-05-11T03:09:25.763Z,10.94
2023-05-11T03:11:52.814Z,11.01
2023-05-11T03:14:20.170Z,11.08
2023-05-11T03:16:48.161Z,11.16
2023-05-11T03:19:15.406Z,11.23
2023-05-11T03:21:42.666Z,11.29
2023-05-11T03:24:09.833Z,11.34
2023-05-11T03:26:36.874Z,11.39
2023-05-11T03:29:03.943Z,11.41
2023-05-11T03:31:30.865Z,11.42
2023-05-11T03:33:58.760Z,11.40
2023-05-11T03:36:26.724Z,11.38
2023-05-11T03:38:56.691Z,11.34
2023-05-11T03:41:26.063Z,11.30
2023-05-11T03:43:54.647Z,11.27
2023-05-11T03:46:22.850Z,11.26
2023-05-11T03:48:50.386Z,11.26
2023-05-11T03:51:20.137Z,11.27
2023-05-11T03:53:46.962Z,11.28
2023-05-11T03:56:14.010Z,11.28
2023-05-11T03:58:40.906Z,11.26
2023-05-11T04:01:10.972Z,11.23
2023-05-11T04:03:51.247Z,11.21
2023-05-11T04:06:18.694Z,11.20
2023-05-11T04:08:47.410Z,11.21
2023-05-11T04:11:14.340Z,11.24
2023-05-11T04:13:41.517Z,11.28
2023-05-11T04:16:08.957Z,11.35
2023-05-11T04:18:35.955Z,11.44
2023-05-11T04:21:02.956Z,11.52
2023-05-11T04:23:29.905Z,11.62
2023-05-11T04:25:58.686Z,11.71
2023-05-11T04:28:28.136Z,11.80
2023-05-11T04:30:55.989Z,11.87
2023-05-11T04:33:23.752Z,11.97
2023-05-11T04:35:52.006Z,12.05
2023-05-11T04:38:19.799Z,12.14
2023-05-11T04:40:48.080Z,12.24
2023-05-11T04:43:15.856Z,12.32
2023-05-11T04:45:48.167Z,12.38
2023-05-11T04:48:16.872Z,12.42
2023-05-11T04:50:45.110Z,12.48
2023-05-11T04:53:12.363Z,12.52
2023-05-11T04:55:39.784Z,12.58
2023-05-11T04:58:06.641Z,12.65
2023-05-11T05:00:33.764Z,12.72
2023-05-11T05:03:00.761Z,12.82
2023-05-11T05:05:27.721Z,12.94
2023-05-11T05:07:54.676Z,13.05
2023-05-11T05:10:22.136Z,13.15
2023-05-11T05:12:49.305Z,13.23
2023-05-11T05:15:16.246Z,13.30
2023-05-11T05:17:43.544Z,13.35
2023-05-11T05:20:11.090Z,13.41
2023-05-11T05:22:38.031Z,13.47
2023-05-11T05:25:05.576Z,13.54
2023-05-11T05:27:34.910Z,13.60
2023-05-11T05:30:05.221Z,13.67
2023-05-11T05:32:32.094Z,13.71
2023-05-11T05:34:59.462Z,13.76
2023-05-11T05:37:26.996Z,13.83
2023-05-11T05:39:54.168Z,13.91
2023-05-11T05:42:22.552Z,14.01
2023-05-11T05:44:50.308Z,14.15
2023-05-11T05:47:17.359Z,14.31
2023-05-11T05:49:44.764Z,14.45
2023-05-11T05:52:11.872Z,14.58
2023-05-11T05:54:40.989Z,14.67
2023-05-11T05:57:07.867Z,14.76
2023-05-11T05:59:35.283Z,14.81
2023-05-11T06:02:02.194Z,14.86
2023-05-11T06:04:29.784Z,14.93
2023-05-11T06:06:58.095Z,14.99
2023-05-11T06:09:25.033Z,15.04
2023-05-11T06:11:54.336Z,15.07
2023-05-11T06:14:22.790Z,15.10
2023-05-11T06:16:50.086Z,15.16
2023-05-11T06:19:16.992Z,15.24
2023-05-11T06:21:46.283Z,15.33
2023-05-11T06:24:13.496Z,15.42
2023-05-11T06:26:41.340Z,15.49
2023-05-11T06:29:08.280Z,15.52
2023-05-11T06:31:35.844Z,15.53
2023-05-11T06:34:04.169Z,15.52
2023-05-11T06:36:32.419Z,15.51
2023-05-11T06:38:59.709Z,15.50
2023-05-11T06:41:27.093Z,15.52
2023-05-11T06:43:53.926Z,15.60
2023-05-11T06:46:26.630Z,15.79
2023-05-11T06:48:53.615Z,15.98
2023-05-11T06:51:22.138Z,16.17
2023-05-11T06:53:48.974Z,16.39
2023-05-11T06:56:16.139Z,16.63
2023-05-11T06:58:45.945Z,16.93
2023-05-11T07:01:12.955Z,17.40
2023-05-11T07:03:39.931Z,17.88
2023-05-11T07:06:07.357Z,18.46
2023-05-11T07:08:34.481Z,19.94
2023-05-11T07:11:01.740Z,22.28
2023-05-11T07:13:28.791Z,24.79
2023-05-11T07:15:57.510Z,26.81
2023-05-11T07:18:24.992Z,28.36
2023-05-11T07:20:52.006Z,29.59
2023-05-11T07:23:19.251Z,30.97
2023-05-11T07:25:46.210Z,32.32
2023-05-11T07:28:13.167Z,33.49
2023-05-11T07:30:40.107Z,34.48
2023-05-11T07:33:07.170Z,35.32
2023-05-11T07:35:34.111Z,36.09
2023-05-11T07:38:01.063Z,36.78
2023-05-11T07:40:28.028Z,37.37
2023-05-11T07:42:55.070Z,37.80
2023-05-11T07:45:22.125Z,37.40
2023-05-11T07:47:49.020Z,35.60
2023-05-11T07:50:17.134Z,33.27
2023-05-11T07:52:44.302Z,31.70
2023-05-11T07:55:11.158Z,31.32
2023-05-11T07:57:38.107Z,30.49
2023-05-11T08:00:08.198Z,29.08
2023-05-11T08:02:38.949Z,27.49
2023-05-11T08:05:06.479Z,25.88
2023-05-11T08:07:33.392Z,24.46
2023-05-11T08:10:00.285Z,23.39
2023-05-11T08:12:27.587Z,22.68
2023-05-11T08:14:54.441Z,21.98
2023-05-11T08:17:21.834Z,21.39
2023-05-11T08:19:48.852Z,20.85
2023-05-11T08:22:15.816Z,20.34
2023-05-11T08:24:42.760Z,19.94
2023-05-11T08:27:09.708Z,19.56
2023-05-11T08:29:36.667Z,19.28
2023-05-11T08:32:03.736Z,19.14
2023-05-11T08:34:30.929Z,19.11
2023-05-11T08:37:00.272Z,19.10
2023-05-11T08:39:45.495Z,19.06
2023-05-11T08:42:17.654Z,18.97
2023-05-11T08:44:44.680Z,18.87
2023-05-11T08:47:22.648Z,18.80
2023-05-11T08:49:52.477Z,18.74
2023-05-11T08:52:19.646Z,18.68
2023-05-11T08:54:47.310Z,18.63
2023-05-11T08:57:14.680Z,18.59
2023-05-11T08:59:42.340Z,18.58
2023-05-11T09:02:11.158Z,18.57
2023-05-11T09:04:38.084Z,18.54
2023-05-11T09:07:05.040Z,18.49
2023-05-11T09:09:32.127Z,18.45
2023-05-11T09:11:59.067Z,18.47
2023-05-11T09:14:27.528Z,18.54
2023-05-11T09:16:54.746Z,18.61
2023-05-11T09:19:22.147Z,18.71
2023-05-11T09:21:49.131Z,18.81
2023-05-11T09:24:16.047Z,18.87
2023-05-11T09:26:43.022Z,18.89
2023-05-11T09:29:09.912Z,18.88
2023-05-11T09:31:40.176Z,18.82
2023-05-11T09:34:14.264Z,18.75
2023-05-11T09:36:42.482Z,18.68
2023-05-11T09:39:15.414Z,18.58
2023-05-11T09:41:43.290Z,18.50
2023-05-11T09:44:12.164Z,18.44
2023-05-11T09:46:40.143Z,18.33
2023-05-11T09:49:07.966Z,18.21
2023-05-11T09:51:37.034Z,18.15
2023-05-11T09:54:18.111Z,18.11
2023-05-11T09:56:47.273Z,18.07
2023-05-11T09:59:18.561Z,18.01
2023-05-11T10:01:45.508Z,17.97
2023-05-11T10:04:23.108Z,17.96
2023-05-11T10:06:53.732Z,17.95
2023-05-11T10:09:24.511Z,17.89
2023-05-11T10:11:51.500Z,17.83
2023-05-11T10:14:19.067Z,17.80
2023-05-11T10:16:46.630Z,17.77
2023-05-11T10:19:14.120Z,17.79
2023-05-11T10:21:41.134Z,17.83
2023-05-11T10:24:28.594Z,17.88
2023-05-11T10:26:56.294Z,17.95
2023-05-11T10:29:23.173Z,17.97
2023-05-11T10:31:51.760Z,17.90
2023-05-11T10:34:18.972Z,17.86
2023-05-11T10:36:46.427Z,17.85
2023-05-11T10:39:13.303Z,17.89
2023-05-11T10:41:56.458Z,17.97
2023-05-11T10:44:48.048Z,18.00
2023-05-11T10:47:37.764Z,17.99
2023-05-11T10:50:43.281Z,17.98
2023-05-11T10:53:16.659Z,18.00
2023-05-11T10:56:06.509Z,18.06
2023-05-11T10:58:48.454Z,18.14
2023-05-11T11:01:24.601Z,18.27
2023-05-11T11:03:58.534Z,18.47
2023-05-11T11:06:26.023Z,18.63
2023-05-11T11:09:00.462Z,18.65
2023-05-11T11:11:34.998Z,18.56
2023-05-11T11:14:03.836Z,18.45
2023-05-11T11:16:31.031Z,18.40
2023-05-11T11:19:32.476Z,18.33
2023-05-11T11:22:00.505Z,18.32
2023-05-11T11:24:39.688Z,18.34
2023-05-11T11:27:07.366Z,18.35
2023-05-11T11:29:35.268Z,18.36
2023-05-11T11:32:25.311Z,18.38
2023-05-11T11:34:52.685Z,18.35
2023-05-11T11:37:22.383Z,18.32
2023-05-11T11:39:50.541Z,18.28
2023-05-11T11:42:19.722Z,18.25
2023-05-11T11:44:46.705Z,18.19
2023-05-11T11:47:23.354Z,18.13
2023-05-11T11:49:54.021Z,18.13
2023-05-11T11:52:26.963Z,18.14
2023-05-11T11:54:57.847Z,18.13
2023-05-11T11:57:38.216Z,18.12
2023-05-11T12:00:11.670Z,18.13
2023-05-11T12:02:42.950Z,18.15
2023-05-11T12:05:12.806Z,18.12
2023-05-11T12:07:44.408Z,18.10
2023-05-11T12:10:13.327Z,18.09
2023-05-11T12:12:40.413Z,18.12
2023-05-11T12:15:08.147Z,18.17
2023-05-11T12:17:38.486Z,18.19
2023-05-11T12:20:15.453Z,18.21
2023-05-11T12:22:42.922Z,18.27
2023-05-11T12:25:11.545Z,18.33
2023-05-11T12:27:52.073Z,18.37
2023-05-11T12:30:23.416Z,18.41
2023-05-11T12:32:56.458Z,18.53
2023-05-11T12:35:33.962Z,18.70
2023-05-11T12:38:02.466Z,18.88
2023-05-11T12:40:29.545Z,18.98
2023-05-11T12:42:57.892Z,19.07
2023-05-11T12:45:25.655Z,19.11
2023-05-11T12:47:53.837Z,19.10
2023-05-11T12:50:21.136Z,19.09
2023-05-11T12:52:49.337Z,19.07
2023-05-11T12:55:28.452Z,19.03
2023-05-11T12:58:06.640Z,18.95
2023-05-11T13:00:33.712Z,18.85
2023-05-11T13:03:00.629Z,18.71
2023-05-11T13:05:29.511Z,18.54
2023-05-11T13:08:04.180Z,18.38
2023-05-11T13:10:31.028Z,18.27
2023-05-11T13:12:57.961Z,18.25
2023-05-11T13:15:25.457Z,18.26
2023-05-11T13:17:57.272Z,18.27
2023-05-11T13:20:27.303Z,18.31
2023-05-11T13:23:03.595Z,18.38
2023-05-11T13:25:30.541Z,18.46
2023-05-11T13:27:57.406Z,18.57
2023-05-11T13:30:28.519Z,18.67
2023-05-11T13:32:55.479Z,18.76
2023-05-11T13:35:22.460Z,18.83
2023-05-11T13:37:49.292Z,18.89
2023-05-11T13:40:16.127Z,18.96
2023-05-11T13:42:43.599Z,19.01
2023-05-11T13:45:12.194Z,19.07
2023-05-11T13:47:39.121Z,19.14
2023-05-11T13:50:07.288Z,19.22
2023-05-11T13:52:34.284Z,19.25
2023-05-11T13:55:01.151Z,19.23
2023-05-11T13:57:28.005Z,19.18
2023-05-11T13:59:54.987Z,19.11
2023-05-11T14:02:22.417Z,19.01
2023-05-11T14:04:49.315Z,18.92
2023-05-11T14:07:16.232Z,18.79
2023-05-11T14:09:44.053Z,18.70
2023-05-11T14:12:11.015Z,18.65
2023-05-11T14:14:38.019Z,18.62
2023-05-11T14:17:06.124Z,18.60
2023-05-11T14:19:33.119Z,18.58
2023-05-11T14:22:00.658Z,18.56
2023-05-11T14:24:27.615Z,18.56
2023-05-11T14:26:54.832Z,18.54
2023-05-11T14:29:21.721Z,18.49
2023-05-11T14:31:48.858Z,18.45
2023-05-11T14:34:15.796Z,18.40
2023-05-11T14:36:42.673Z,18.36
2023-05-11T14:39:09.629Z,18.36
2023-05-11T14:41:36.986Z,18.38
2023-05-11T14:44:03.953Z,18.40
2023-05-11T14:46:31.119Z,18.40
2023-05-11T14:48:58.054Z,18.43
2023-05-11T14:51:24.931Z,18.46
2023-05-11T14:53:52.381Z,18.51
2023-05-11T14:56:19.257Z,18.55
2023-05-11T14:58:47.078Z,18.56
2023-05-11T15:01:13.961Z,18.57
2023-05-11T15:03:41.739Z,18.56
2023-05-11T15:06:08.750Z,18.51
2023-05-11T15:08:35.644Z,18.43
2023-05-11T15:11:02.497Z,18.35
2023-05-11T15:13:29.314Z,18.28
2023-05-11T15:15:57.119Z,18.19
2023-05-11T15:18:24.155Z,18.09
2023-05-11T15:20:51.072Z,18.00
2023-05-11T15:23:18.121Z,17.91
2023-05-11T15:25:45.417Z,17.82
2023-05-11T15:28:12.646Z,17.72
2023-05-11T15:30:41.747Z,17.63
2023-05-11T15:33:10.563Z,17.56
2023-05-11T15:35:38.025Z,17.47
2023-05-11T15:38:05.404Z,17.39
2023-05-11T15:40:32.737Z,17.34
2023-05-11T15:43:00.490Z,17.30
2023-05-11T15:45:27.705Z,17.28
2023-05-11T15:47:54.692Z,17.27
2023-05-11T15:50:22.377Z,17.27
2023-05-11T15:52:49.636Z,17.27
2023-05-11T15:55:16.633Z,17.24
2023-05-11T15:57:43.473Z,17.24
2023-05-11T16:00:11.559Z,17.23
2023-05-11T16:02:38.795Z,17.22
2023-05-11T16:05:06.972Z,17.23
2023-05-11T16:07:34.313Z,17.22
2023-05-11T16:10:01.568Z,17.20
2023-05-11T16:12:28.438Z,17.19
2023-05-11T16:14:55.287Z,17.18
2023-05-11T16:17:22.239Z,17.15
2023-05-11T16:19:49.258Z,17.13
2023-05-11T16:22:16.227Z,17.10
2023-05-11T16:24:43.171Z,17.09
2023-05-11T16:27:10.123Z,17.06
2023-05-11T16:29:36.956Z,17.05
2023-05-11T16:32:04.019Z,17.03
2023-05-11T16:34:30.909Z,17.01
2023-05-11T16:36:59.183Z,16.98
2023-05-11T16:39:27.223Z,16.94
2023-05-11T16:41:54.083Z,16.90
2023-05-11T16:44:21.354Z,16.87
2023-05-11T16:46:49.144Z,16.83
2023-05-11T16:49:16.693Z,16.82
2023-05-11T16:51:43.641Z,16.80
2023-05-11T16:54:10.684Z,16.80
2023-05-11T16:56:37.761Z,16.79
2023-05-11T16:59:04.674Z,16.78
2023-05-11T17:01:32.529Z,16.77
2023-05-11T17:03:59.468Z,16.76
2023-05-11T17:06:27.659Z,16.74
2023-05-11T17:08:54.768Z,16.73
2023-05-11T17:11:21.909Z,16.71
2023-05-11T17:13:48.723Z,16.70
2023-05-11T17:16:15.820Z,16.68
2023-05-11T17:18:42.941Z,16.65
2023-05-11T17:21:11.233Z,16.62
2023-05-11T17:23:39.625Z,16.59
2023-05-11T17:26:10.321Z,16.55
2023-05-11T17:28:37.776Z,16.51
2023-05-11T17:31:12.212Z,16.48
2023-05-11T17:33:39.621Z,16.44
2023-05-11T17:36:07.479Z,16.39
2023-05-11T17:38:34.419Z,16.35
2023-05-11T17:41:04.914Z,16.30
2023-05-11T17:43:32.829Z,16.25
2023-05-11T17:46:00.312Z,16.20
2023-05-11T17:48:27.469Z,16.15
2023-05-11T17:50:54.411Z,16.09
2023-05-11T17:53:21.350Z,16.05
2023-05-11T17:55:48.302Z,15.99
2023-05-11T17:58:15.253Z,15.94
2023-05-11T18:00:42.202Z,15.91
2023-05-11T18:03:09.198Z,15.87
2023-05-11T18:05:47.491Z,15.83
2023-05-11T18:08:15.846Z,15.79
2023-05-11T18:10:42.690Z,15.75
2023-05-11T18:13:09.645Z,15.72
2023-05-11T18:15:36.517Z,15.68
2023-05-11T18:18:03.653Z,15.65
2023-05-11T18:20:30.975Z,15.63
2023-05-11T18:22:58.392Z,15.60
2023-05-11T18:25:28.038Z,15.57
2023-05-11T18:27:55.353Z,15.56
2023-05-11T18:30:22.421Z,15.55
2023-05-11T18:32:49.385Z,15.56
2023-05-11T18:35:17.215Z,15.55
2023-05-11T18:37:44.390Z,15.54
2023-05-11T18:40:11.756Z,15.54
2023-05-11T18:42:38.710Z,15.53
2023-05-11T18:45:07.509Z,15.53
2023-05-11T18:47:37.479Z,15.54
2023-05-11T18:50:04.797Z,15.55
2023-05-11T18:52:31.718Z,15.56
2023-05-11T18:54:58.581Z,15.56
2023-05-11T18:57:25.523Z,15.56
2023-05-11T18:59:52.825Z,15.56
2023-05-11T19:02:19.705Z,15.54
2023-05-11T19:04:46.676Z,15.53
2023-05-11T19:07:13.567Z,15.52
2023-05-11T19:09:40.440Z,15.50
2023-05-11T19:12:07.862Z,15.50
2023-05-11T19:14:34.954Z,15.50
2023-05-11T19:17:02.523Z,15.50
2023-05-11T19:19:29.458Z,15.49
2023-05-11T19:24:38.151Z,15.49
2023-05-11T19:27:07.902Z,15.48
2023-05-11T19:45:59.278Z,15.22
2023-05-11T19:53:48.096Z,15.12
2023-05-11T19:56:15.114Z,15.10
2023-05-11T19:58:52.605Z,15.08
2023-05-11T20:01:20.373Z,15.08
2023-05-11T20:06:28.275Z,15.08
2023-05-11T20:08:57.024Z,15.08
2023-05-11T20:11:26.800Z,15.08
2023-05-11T20:13:53.965Z,15.10
2023-05-11T20:16:21.058Z,15.11
2023-05-11T20:18:48.382Z,15.12
2023-05-11T20:21:15.927Z,15.12
2023-05-11T20:23:45.282Z,15.11
2023-05-11T20:26:17.512Z,15.11
2023-05-11T20:28:44.734Z,15.13
2023-05-11T20:31:11.876Z,15.16
2023-05-11T20:36:09.711Z,15.22
2023-05-11T20:38:36.668Z,15.24
2023-05-11T20:41:03.731Z,15.25
2023-05-11T20:43:30.779Z,15.26
2023-05-11T20:46:04.749Z,15.25
2023-05-11T20:48:40.046Z,15.24
2023-05-11T20:51:08.646Z,15.24
2023-05-11T20:53:35.989Z,15.22
2023-05-11T20:56:03.339Z,15.21
2023-05-11T20:58:31.698Z,15.20
2023-05-11T21:00:58.797Z,15.18
2023-05-11T21:03:26.302Z,15.17
2023-05-11T21:05:53.634Z,15.16
2023-05-11T21:08:20.505Z,15.14
2023-05-11T21:10:47.731Z,15.13
2023-05-11T21:13:14.580Z,15.11
2023-05-11T21:15:41.442Z,15.09
2023-05-11T21:18:08.764Z,15.07
2023-05-11T21:20:36.323Z,15.06
2023-05-11T21:23:03.752Z,15.05
2023-05-11T21:25:31.167Z,15.05
2023-05-11T21:27:58.047Z,15.07
2023-05-11T21:30:25.218Z,15.09
2023-05-11T21:32:52.256Z,15.11
2023-05-11T21:35:19.361Z,15.12
2023-05-11T21:37:49.825Z,15.15
2023-05-11T21:40:18.179Z,15.17
2023-05-11T21:42:45.544Z,15.19
2023-05-11T21:45:12.639Z,15.20
2023-05-11T21:47:39.831Z,15.21
2023-05-11T21:50:08.831Z,15.21
2023-05-11T21:52:37.038Z,15.21
2023-05-11T21:55:05.011Z,15.22
2023-05-11T21:57:31.955Z,15.22
2023-05-11T21:59:59.352Z,15.22
2023-05-11T22:02:27.194Z,15.21
2023-05-11T22:04:54.164Z,15.20
2023-05-11T22:07:21.047Z,15.19
2023-05-11T22:09:48.157Z,15.17
2023-05-11T22:12:15.204Z,15.16
2023-05-11T22:14:42.159Z,15.15
2023-05-11T22:17:09.073Z,15.13
2023-05-11T22:19:36.259Z,15.11
2023-05-11T22:22:03.109Z,15.10
2023-05-11T22:24:29.977Z,15.08
2023-05-11T22:26:57.328Z,15.05
2023-05-11T22:29:24.274Z,15.02
2023-05-11T22:31:51.115Z,15.00
2023-05-11T22:34:19.840Z,14.98
2023-05-11T22:36:46.789Z,14.97
2023-05-11T22:39:14.090Z,14.96
2023-05-11T22:41:41.074Z,14.95
2023-05-11T22:44:08.640Z,14.94
2023-05-11T22:46:35.575Z,14.94
2023-05-11T22:49:02.675Z,14.93
2023-05-11T22:51:29.586Z,14.91
2023-05-11T22:53:56.426Z,14.89
2023-05-11T22:56:23.288Z,14.85
2023-05-11T22:58:50.217Z,14.82
2023-05-11T23:01:17.166Z,14.79
2023-05-11T23:03:44.242Z,14.74
2023-05-11T23:06:11.723Z,14.71
2023-05-11T23:08:39.481Z,14.67
2023-05-11T23:11:07.631Z,14.63
2023-05-11T23:13:35.057Z,14.60
2023-05-11T23:16:04.034Z,14.57
2023-05-11T23:18:31.614Z,14.53
2023-05-11T23:20:59.072Z,14.50
2023-05-11T23:23:26.400Z,14.47
2023-05-11T23:25:53.458Z,14.45
2023-05-11T23:28:20.627Z,14.43
2023-05-11T23:30:47.738Z,14.41
2023-05-11T23:33:15.275Z,14.40
2023-05-11T23:35:42.187Z,14.38
2023-05-11T23:38:09.130Z,14.37
2023-05-11T23:40:36.336Z,14.36
2023-05-11T23:43:03.559Z,14.36
2023-05-11T23:45:30.913Z,14.36
2023-05-11T23:47:57.852Z,14.35
2023-05-11T23:50:25.017Z,14.34
2023-05-11T23:52:51.968Z,14.33
2023-05-11T23:55:19.023Z,14.31
2023-05-11T23:57:46.280Z,14.29
